createdAt,value
2023-02-11T00:00:02.076Z,0
2023-02-11T00:05:02.364Z,0
2023-02-11T00:10:02.118Z,0
2023-02-11T00:15:02.106Z,0
2023-02-11T00:20:02.119Z,0
2023-02-11T00:25:02.102Z,0
2023-02-11T00:30:02.148Z,0
2023-02-11T00:35:02.106Z,0
2023-02-11T00:40:03.859Z,0
2023-02-11T00:45:02.117Z,0
2023-02-11T00:50:02.072Z,0
2023-02-11T00:55:02.173Z,0
2023-02-11T01:00:02.155Z,0
2023-02-11T01:05:02.249Z,0
2023-02-11T01:10:02.121Z,0
2023-02-11T01:15:02.109Z,0
2023-02-11T01:20:02.318Z,0
2023-02-11T01:25:02.335Z,0
2023-02-11T01:30:02.317Z,0
2023-02-11T01:35:02.280Z,0
2023-02-11T01:40:02.322Z,0
2023-02-11T01:45:02.315Z,0
2023-02-11T01:50:02.322Z,0
2023-02-11T01:55:02.385Z,0
2023-02-11T02:00:02.258Z,0
2023-02-11T02:05:02.241Z,0
2023-02-11T02:10:02.104Z,0
2023-02-11T02:15:02.201Z,0
2023-02-11T02:20:02.291Z,0
2023-02-11T02:25:02.174Z,0
2023-02-11T02:30:02.209Z,0
2023-02-11T02:35:02.187Z,0
2023-02-11T02:40:02.202Z,0
2023-02-11T02:45:02.222Z,0
2023-02-11T02:50:02.241Z,0
2023-02-11T02:55:02.233Z,0
2023-02-11T03:00:02.278Z,0
2023-02-11T03:05:02.236Z,0
2023-02-11T03:10:02.264Z,0
2023-02-11T03:15:02.227Z,0
2023-02-11T03:20:02.227Z,0
2023-02-11T03:25:02.249Z,0
2023-02-11T03:30:02.317Z,0
2023-02-11T03:35:02.279Z,0
2023-02-11T03:40:02.249Z,0
2023-02-11T03:45:02.268Z,0
2023-02-11T03:50:02.282Z,0
2023-02-11T03:55:02.246Z,0
2023-02-11T04:00:02.326Z,0
2023-02-11T04:05:02.275Z,0
2023-02-11T04:10:02.227Z,0
2023-02-11T04:15:02.256Z,0
2023-02-11T04:20:02.284Z,0
2023-02-11T04:25:02.308Z,0
2023-02-11T04:30:02.558Z,0
2023-02-11T04:35:02.441Z,0
2023-02-11T04:40:02.485Z,0
2023-02-11T04:45:02.432Z,0
2023-02-11T04:50:02.487Z,0
2023-02-11T04:55:02.428Z,0
2023-02-11T05:00:02.508Z,0
2023-02-11T05:05:02.598Z,0
2023-02-11T05:10:02.498Z,0
2023-02-11T05:15:02.495Z,0
2023-02-11T05:20:02.464Z,0
2023-02-11T05:25:02.445Z,0
2023-02-11T05:30:02.450Z,0
2023-02-11T05:35:02.467Z,0
2023-02-11T05:40:02.410Z,0
2023-02-11T05:45:02.370Z,0
2023-02-11T05:50:02.367Z,0
2023-02-11T05:55:02.412Z,0
2023-02-11T06:00:02.446Z,0
2023-02-11T06:05:02.408Z,0
2023-02-11T06:10:02.360Z,0
2023-02-11T06:15:02.418Z,0
2023-02-11T06:20:02.409Z,0
2023-02-11T06:25:02.615Z,0
2023-02-11T06:30:02.465Z,0
2023-02-11T06:35:02.414Z,0
2023-02-11T06:40:02.425Z,0
2023-02-11T06:45:02.412Z,0
2023-02-11T06:50:02.403Z,0
2023-02-11T06:55:02.433Z,0.4958730158730159
2023-02-11T07:00:02.517Z,0.9803703703703703
2023-02-11T07:05:02.431Z,0.5693227513227513
2023-02-11T07:10:02.377Z,0.45675132275132274
2023-02-11T07:15:02.468Z,0.7432592592592592
2023-02-11T07:20:02.453Z,1.2509417989417988
2023-02-11T07:25:02.558Z,0.7606031746031745
2023-02-11T07:30:04.320Z,1.9542645502645501
2023-02-11T07:35:02.582Z,1.0574285714285714
2023-02-11T07:40:02.462Z,0.9615132275132274
2023-02-11T07:45:02.486Z,1.0880423280423281
2023-02-11T07:50:02.474Z,1.7725079365079368
2023-02-11T07:55:04.759Z,2.3598412698412696
2023-02-11T08:00:02.530Z,2.545047619047619
2023-02-11T08:05:02.572Z,4.004783068783069
2023-02-11T08:10:02.521Z,4.202793650793651
2023-02-11T08:15:02.453Z,4.585322751322751
2023-02-11T08:20:02.491Z,3.1355026455026453
2023-02-11T08:25:02.665Z,4.186148148148148
2023-02-11T08:30:02.669Z,4.28568253968254
2023-02-11T08:35:02.692Z,5.362317460317461
2023-02-11T08:40:02.687Z,6.407777777777778
2023-02-11T08:45:02.631Z,4.6531746031746035
2023-02-11T08:50:02.674Z,5.926571428571429
2023-02-11T08:55:02.598Z,6.738338624338624
2023-02-11T09:00:02.641Z,5.881661375661375
2023-02-11T09:05:02.626Z,27.370772486772488
2023-02-11T09:10:02.583Z,42.046052910052914
2023-02-11T09:15:02.543Z,32.06915343915344
2023-02-11T09:20:02.486Z,23.541650793650795
2023-02-11T09:25:02.571Z,25.19805291005291
2023-02-11T09:30:02.542Z,44.87486772486773
2023-02-11T09:35:02.551Z,46.191883597883596
2023-02-11T09:40:02.521Z,49.54346031746032
2023-02-11T09:45:02.575Z,48.77540740740741
2023-02-11T09:50:02.529Z,49.69061375661376
2023-02-11T09:55:02.589Z,50.86542857142857
2023-02-11T10:00:02.685Z,53.931936507936506
2023-02-11T10:05:02.640Z,55.388529100529105
2023-02-11T10:10:02.613Z,58.3170582010582
2023-02-11T10:15:02.609Z,36.80779894179894
2023-02-11T10:20:02.635Z,29.06809523809524
2023-02-11T10:25:02.802Z,33.007947089947095
2023-02-11T10:30:02.648Z,32.48235978835979
2023-02-11T10:35:02.621Z,25.836507936507942
2023-02-11T10:40:02.646Z,23.968296296296295
2023-02-11T10:45:02.608Z,51.851100529100535
2023-02-11T10:50:02.626Z,67.20274074074075
2023-02-11T10:55:02.602Z,61.81265608465609
2023-02-11T11:00:02.723Z,55.56088888888889
2023-02-11T11:05:02.757Z,55.10277248677249
2023-02-11T11:10:02.743Z,62.75187301587302
2023-02-11T11:15:02.645Z,53.614899470899466
2023-02-11T11:20:02.682Z,51.90791534391535
2023-02-11T11:25:02.824Z,67.48815873015873
2023-02-11T11:30:02.708Z,60.28187301587301
2023-02-11T11:35:02.653Z,61.302211640211645
2023-02-11T11:40:02.628Z,70.74567195767196
2023-02-11T11:45:02.649Z,55.94746031746032
2023-02-11T11:50:02.648Z,31.563735449735454
2023-02-11T11:55:02.605Z,19.02062433862434
2023-02-11T12:00:02.937Z,23.75205291005291
2023-02-11T12:05:02.722Z,56.0126455026455
2023-02-11T12:10:02.689Z,46.668783068783064
2023-02-11T12:15:00.777Z,23.961280423280424
2023-02-11T12:20:00.838Z,43.27065608465609
2023-02-11T12:25:00.818Z,56.51117460317461
2023-02-11T12:30:00.802Z,56.90178835978836
2023-02-11T12:35:01.038Z,47.61958730158731
2023-02-11T12:40:00.770Z,53.439026455026465
2023-02-11T12:45:00.805Z,50.23088888888889
2023-02-11T12:50:00.756Z,42.648232804232805
2023-02-11T12:55:00.749Z,48.57211640211641
2023-02-11T13:00:00.985Z,52.430740740740745
2023-02-11T13:05:01.065Z,57.75627513227513
2023-02-11T13:15:01.131Z,56.275862433862436
2023-02-11T13:20:00.973Z,52.945576719576714
2023-02-11T13:25:00.960Z,47.99315343915344
2023-02-11T13:30:03.833Z,47.893904761904764
2023-02-11T13:35:01.038Z,45.551121693121694
2023-02-11T13:40:00.979Z,43.0674074074074
2023-02-11T13:45:01.438Z,40.7505925925926
2023-02-11T13:50:01.011Z,38.80520634920635
2023-02-11T13:55:00.986Z,35.54962962962963
2023-02-11T14:00:00.989Z,32.37368253968254
2023-02-11T14:05:00.961Z,30.693830687830687
2023-02-11T14:10:00.877Z,28.505788359788358
2023-02-11T14:15:02.958Z,26.19093121693122
2023-02-11T14:20:00.862Z,23.634179894179894
2023-02-11T14:25:00.932Z,21.148063492063493
2023-02-11T14:30:01.298Z,18.165407407407407
2023-02-11T14:35:00.935Z,17.082825396825395
2023-02-11T14:40:00.922Z,9.197280423280423
2023-02-11T14:45:00.900Z,5.6874708994709
2023-02-11T14:50:00.887Z,5.020592592592593
2023-02-11T14:55:00.874Z,4.471227513227513
2023-02-11T15:00:00.984Z,4.236529100529101
2023-02-11T15:05:00.907Z,3.9092169312169314
2023-02-11T15:10:00.894Z,3.507354497354497
2023-02-11T15:15:00.902Z,3.074370370370371
2023-02-11T15:20:00.898Z,2.6253015873015872
2023-02-11T15:25:00.902Z,2.1314285714285717
2023-02-11T15:30:00.967Z,1.6482751322751323
2023-02-11T15:35:00.948Z,1.1908888888888889
2023-02-11T15:40:00.933Z,0.8275026455026455
2023-02-11T15:45:01.020Z,0.5043068783068784
2023-02-11T15:50:00.977Z,0.31412698412698414
2023-02-11T15:55:00.954Z,0.36183068783068784
2023-02-11T16:00:01.203Z,0.1534074074074074
2023-02-11T16:05:01.134Z,0
2023-02-11T16:10:01.137Z,0
2023-02-11T16:15:01.144Z,0
2023-02-11T16:20:01.144Z,0
2023-02-11T16:25:01.074Z,0
2023-02-11T16:30:01.330Z,0
2023-02-11T16:35:01.425Z,0
2023-02-11T16:40:01.067Z,0
2023-02-11T16:45:01.152Z,0
2023-02-11T16:50:01.170Z,0
2023-02-11T16:55:01.469Z,0
2023-02-11T17:00:01.160Z,0
2023-02-11T17:05:01.031Z,0
2023-02-11T17:10:01.006Z,0
2023-02-11T17:15:01.165Z,0
2023-02-11T17:20:01.028Z,0
2023-02-11T17:25:01.072Z,0
2023-02-11T17:30:01.061Z,0
2023-02-11T17:35:01.064Z,0
2023-02-11T17:40:01.029Z,0
2023-02-11T17:45:00.950Z,0
2023-02-11T17:50:01.203Z,0
2023-02-11T17:55:01.062Z,0
2023-02-11T18:00:01.080Z,0
2023-02-11T18:05:01.093Z,0
2023-02-11T18:10:01.087Z,0
2023-02-11T18:15:01.096Z,0
2023-02-11T18:20:01.075Z,0
2023-02-11T18:25:01.058Z,0
2023-02-11T18:30:01.142Z,0
2023-02-11T18:35:01.092Z,0
2023-02-11T18:40:01.091Z,0
2023-02-11T18:45:01.113Z,0
2023-02-11T18:50:01.086Z,0
2023-02-11T18:55:01.194Z,0
2023-02-11T19:00:01.147Z,0
2023-02-11T19:05:01.118Z,0
2023-02-11T19:10:01.127Z,0
2023-02-11T19:15:01.116Z,0
2023-02-11T19:20:01.100Z,0
2023-02-11T19:25:01.126Z,0
2023-02-11T19:30:01.163Z,0
2023-02-11T19:35:01.154Z,0
2023-02-11T19:40:01.200Z,0
2023-02-11T19:45:01.140Z,0
2023-02-11T19:50:01.143Z,0
2023-02-11T19:55:01.161Z,0
2023-02-11T20:00:01.209Z,0
2023-02-11T20:05:01.164Z,0
2023-02-11T20:10:01.175Z,0
2023-02-11T20:15:01.157Z,0
2023-02-11T20:20:01.156Z,0
2023-02-11T20:25:01.138Z,0
2023-02-11T20:30:01.219Z,0
2023-02-11T20:35:01.171Z,0
2023-02-11T20:40:01.452Z,0
2023-02-11T20:45:01.368Z,0
2023-02-11T20:50:01.545Z,0
2023-02-11T20:55:01.384Z,0
2023-02-11T21:00:01.350Z,0
2023-02-11T21:05:01.342Z,0
2023-02-11T21:10:01.481Z,0
2023-02-11T21:15:01.343Z,0
2023-02-11T21:20:01.381Z,0
2023-02-11T21:25:01.326Z,0
2023-02-11T21:30:01.615Z,0
2023-02-11T21:35:02.432Z,0
2023-02-11T21:40:01.402Z,0
2023-02-11T21:45:01.339Z,0
2023-02-11T21:50:01.350Z,0
2023-02-11T21:55:01.359Z,0
2023-02-11T22:00:01.435Z,0
2023-02-11T22:05:01.433Z,0
2023-02-11T22:10:01.360Z,0
2023-02-11T22:15:01.343Z,0
2023-02-11T22:20:01.416Z,0
2023-02-11T22:25:01.315Z,0
2023-02-11T22:30:01.347Z,0
2023-02-11T22:35:01.354Z,0
2023-02-11T22:40:01.317Z,0
2023-02-11T22:45:01.318Z,0
2023-02-11T22:50:01.300Z,0
2023-02-11T22:55:01.346Z,0
2023-02-11T23:00:01.313Z,0
2023-02-11T23:05:01.309Z,0
2023-02-11T23:10:01.345Z,0
2023-02-11T23:15:03.887Z,0
2023-02-11T23:20:01.306Z,0
2023-02-11T23:25:01.341Z,0
2023-02-11T23:30:01.326Z,0
2023-02-11T23:35:01.357Z,0
2023-02-11T23:40:01.330Z,0
2023-02-11T23:45:01.366Z,0
2023-02-11T23:50:01.339Z,0
2023-02-11T23:55:01.312Z,0
